createdAt,value
2023-04-02T00:01:08.593Z,5.93
2023-04-02T00:03:59.359Z,7.13
2023-04-02T00:06:40.125Z,6.63
2023-04-02T00:09:27.519Z,6.93
2023-04-02T00:11:55.926Z,6.50
2023-04-02T00:14:25.794Z,6.30
2023-04-02T00:16:54.159Z,6.23
2023-04-02T00:19:26.313Z,5.73
2023-04-02T00:21:54.919Z,5.83
2023-04-02T00:24:23.779Z,5.77
2023-04-02T00:26:53.828Z,5.33
2023-04-02T00:29:22.519Z,4.70
2023-04-02T00:31:51.965Z,4.60
2023-04-02T00:34:22.487Z,5.07
2023-04-02T00:36:50.896Z,5.17
2023-04-02T00:39:21.165Z,5.20
2023-04-02T00:41:49.675Z,5.90
2023-04-02T00:44:21.903Z,5.10
2023-04-02T00:46:50.744Z,5.77
2023-04-02T00:49:28.752Z,6.10
2023-04-02T00:51:58.694Z,6.40
2023-04-02T00:54:29.368Z,6.70
2023-04-02T00:56:59.103Z,6.33
2023-04-02T00:59:30.690Z,6.80
2023-04-02T01:02:02.702Z,6.20
2023-04-02T01:04:34.297Z,4.73
2023-04-02T01:07:06.452Z,4.90
2023-04-02T01:09:52.560Z,4.70
2023-04-02T01:12:30.981Z,5.70
2023-04-02T01:15:05.343Z,7.40
2023-04-02T01:17:39.116Z,8.60
2023-04-02T01:20:24.250Z,7.87
2023-04-02T01:22:55.320Z,8.50
2023-04-02T01:25:26.576Z,7.90
2023-04-02T01:27:57.906Z,9.03
2023-04-02T01:30:27.599Z,8.90
2023-04-02T01:32:56.125Z,9.33
2023-04-02T01:35:25.415Z,8.87
2023-04-02T01:37:56.148Z,7.67
2023-04-02T01:40:31.145Z,6.30
2023-04-02T01:43:04.180Z,6.20
2023-04-02T01:45:35.103Z,6.97
2023-04-02T01:48:04.326Z,7.03
2023-04-02T01:50:37.010Z,7.90
2023-04-02T01:53:07.106Z,7.57
2023-04-02T01:55:40.780Z,8.57
2023-04-02T01:58:09.243Z,8.63
2023-04-02T02:00:41.921Z,8.90
2023-04-02T02:03:12.487Z,8.27
2023-04-02T02:05:40.987Z,9.97
2023-04-02T02:08:13.617Z,10.00
2023-04-02T02:10:41.987Z,10.03
2023-04-02T02:13:13.096Z,11.07
2023-04-02T02:15:42.633Z,10.00
2023-04-02T02:18:12.760Z,10.03
2023-04-02T02:20:41.186Z,11.10
2023-04-02T02:23:09.573Z,11.60
2023-04-02T02:25:38.147Z,10.67
2023-04-02T02:28:08.341Z,11.10
2023-04-02T02:30:38.442Z,10.17
2023-04-02T02:33:09.997Z,9.23
2023-04-02T02:35:40.986Z,9.63
2023-04-02T02:38:24.194Z,8.07
2023-04-02T02:40:54.483Z,8.87
2023-04-02T02:43:22.688Z,9.53
2023-04-02T02:45:51.475Z,9.97
2023-04-02T02:48:22.092Z,10.23
2023-04-02T02:50:51.413Z,11.30
2023-04-02T02:53:21.533Z,10.30
2023-04-02T02:55:51.399Z,11.27
2023-04-02T02:58:23.273Z,12.47
2023-04-02T03:00:51.763Z,11.90
2023-04-02T03:03:23.143Z,11.70
2023-04-02T03:05:54.193Z,11.43
2023-04-02T03:08:24.759Z,12.10
2023-04-02T03:10:55.921Z,13.67
2023-04-02T03:13:26.242Z,13.97
2023-04-02T03:15:59.046Z,15.03
2023-04-02T03:18:34.885Z,14.87
2023-04-02T03:21:07.004Z,15.47
2023-04-02T03:23:37.324Z,15.87
2023-04-02T03:26:08.891Z,16.20
2023-04-02T03:28:40.099Z,14.63
2023-04-02T03:31:10.255Z,14.67
2023-04-02T03:33:41.820Z,14.33
2023-04-02T03:36:18.736Z,15.13
2023-04-02T03:38:48.846Z,15.97
2023-04-02T03:41:18.901Z,13.73
2023-04-02T03:43:48.222Z,13.93
2023-04-02T03:46:28.676Z,14.50
2023-04-02T03:48:59.631Z,14.40
2023-04-02T03:51:30.506Z,13.77
2023-04-02T03:53:58.761Z,13.73
2023-04-02T03:56:30.517Z,12.17
2023-04-02T03:59:06.321Z,12.77
2023-04-02T04:01:36.594Z,12.40
2023-04-02T04:04:08.617Z,12.80
2023-04-02T04:06:37.829Z,13.93
2023-04-02T04:09:09.843Z,15.17
2023-04-02T04:11:39.219Z,16.47
2023-04-02T04:14:08.927Z,16.30
2023-04-02T04:16:43.274Z,15.50
2023-04-02T04:19:18.087Z,15.03
2023-04-02T04:21:47.213Z,15.23
2023-04-02T04:24:20.242Z,15.83
2023-04-02T04:26:53.532Z,16.97
2023-04-02T04:29:31.428Z,15.53
2023-04-02T04:32:01.533Z,13.60
2023-04-02T04:34:36.260Z,13.17
2023-04-02T04:37:07.668Z,11.33
2023-04-02T04:39:42.453Z,11.10
2023-04-02T04:42:16.339Z,12.43
2023-04-02T04:44:46.785Z,10.87
2023-04-02T04:47:18.897Z,12.13
2023-04-02T04:49:49.403Z,12.37
2023-04-02T04:52:20.923Z,12.17
2023-04-02T04:54:49.418Z,11.10
2023-04-02T04:57:23.158Z,11.50
2023-04-02T04:59:54.025Z,12.17
2023-04-02T05:02:25.866Z,12.60
2023-04-02T05:04:55.481Z,13.20
2023-04-02T05:07:25.346Z,15.23
2023-04-02T05:09:54.382Z,15.23
2023-04-02T05:12:29.595Z,15.30
2023-04-02T05:14:58.891Z,15.60
2023-04-02T05:17:29.819Z,17.27
2023-04-02T05:20:01.887Z,17.70
2023-04-02T05:22:33.616Z,18.77
2023-04-02T05:25:09.022Z,17.80
2023-04-02T05:27:39.898Z,16.93
2023-04-02T05:30:12.120Z,18.33
2023-04-02T05:32:43.976Z,17.47
2023-04-02T05:35:18.103Z,16.00
2023-04-02T05:37:47.180Z,15.37
2023-04-02T05:40:16.761Z,16.43
2023-04-02T05:42:47.239Z,15.33
2023-04-02T05:45:21.075Z,14.67
2023-04-02T05:47:50.761Z,16.53
2023-04-02T05:50:23.506Z,16.50
2023-04-02T05:52:53.542Z,15.80
2023-04-02T05:55:29.698Z,14.57
2023-04-02T05:58:17.643Z,15.97
2023-04-02T06:00:53.426Z,16.40
2023-04-02T06:03:27.302Z,12.77
2023-04-02T06:05:59.508Z,15.07
2023-04-02T06:08:29.277Z,14.67
2023-04-02T06:11:00.754Z,15.13
2023-04-02T06:13:29.279Z,14.43
2023-04-02T06:15:57.651Z,14.47
2023-04-02T06:18:26.967Z,14.27
2023-04-02T06:20:56.503Z,15.67
2023-04-02T06:23:30.717Z,16.00
2023-04-02T06:26:01.117Z,14.93
2023-04-02T06:28:32.144Z,15.50
2023-04-02T06:31:02.939Z,14.87
2023-04-02T06:33:31.126Z,13.27
2023-04-02T06:36:02.019Z,14.67
2023-04-02T06:38:31.684Z,13.63
2023-04-02T06:41:01.154Z,15.43
2023-04-02T06:43:35.859Z,14.57
2023-04-02T06:46:06.965Z,14.83
2023-04-02T06:48:36.291Z,16.90
2023-04-02T06:51:08.168Z,16.90
2023-04-02T06:53:37.979Z,17.87
2023-04-02T06:56:08.031Z,18.80
2023-04-02T06:58:36.210Z,17.27
2023-04-02T07:01:04.517Z,17.93
2023-04-02T07:03:33.558Z,16.27
2023-04-02T07:06:03.500Z,15.53
2023-04-02T07:08:33.098Z,14.87
2023-04-02T07:11:01.321Z,13.83
2023-04-02T07:13:29.509Z,14.57
2023-04-02T07:15:57.744Z,15.60
2023-04-02T07:18:27.826Z,16.00
2023-04-02T07:20:56.074Z,17.53
2023-04-02T07:23:24.419Z,16.17
2023-04-02T07:25:54.608Z,17.53
2023-04-02T07:28:23.285Z,17.20
2023-04-02T07:30:52.025Z,19.37
2023-04-02T07:33:21.514Z,20.07
2023-04-02T07:35:50.676Z,16.80
2023-04-02T07:38:18.849Z,18.07
2023-04-02T07:40:46.998Z,17.37
2023-04-02T07:43:16.577Z,18.27
2023-04-02T07:45:44.742Z,18.43
2023-04-02T07:48:14.186Z,14.27
2023-04-02T07:50:42.477Z,12.67
2023-04-02T07:53:17.431Z,10.03
2023-04-02T07:55:45.776Z,10.00
2023-04-02T07:58:13.930Z,9.70
2023-04-02T08:00:43.463Z,9.27
2023-04-02T08:03:12.178Z,9.37
2023-04-02T08:05:40.357Z,7.77
2023-04-02T08:08:08.562Z,8.80
2023-04-02T08:10:36.747Z,8.83
2023-04-02T08:13:05.008Z,8.10
2023-04-02T08:15:33.548Z,8.63
2023-04-02T08:18:03.450Z,10.57
2023-04-02T08:20:31.674Z,10.53
2023-04-02T08:23:00.934Z,11.23
2023-04-02T08:25:29.134Z,11.37
2023-04-02T08:27:57.409Z,12.27
2023-04-02T08:30:25.654Z,12.30
2023-04-02T08:32:53.872Z,13.93
2023-04-02T08:35:23.939Z,13.80
2023-04-02T08:37:52.144Z,14.47
2023-04-02T08:40:24.178Z,17.20
2023-04-02T08:42:59.181Z,18.03
2023-04-02T08:45:35.127Z,17.97
2023-04-02T08:48:05.319Z,17.37
2023-04-02T08:50:37.073Z,17.53
2023-04-02T08:53:06.641Z,17.10
2023-04-02T08:55:38.326Z,16.10
2023-04-02T08:58:09.676Z,14.90
2023-04-02T09:00:38.653Z,13.53
2023-04-02T09:03:10.926Z,14.30
2023-04-02T09:05:41.930Z,15.33
2023-04-02T09:08:16.686Z,14.40
2023-04-02T09:10:48.596Z,13.80
2023-04-02T09:13:19.074Z,14.07
2023-04-02T09:15:47.257Z,14.50
2023-04-02T09:18:17.056Z,14.43
2023-04-02T09:20:48.115Z,14.80
2023-04-02T09:23:18.458Z,15.03
2023-04-02T09:26:00.995Z,16.20
2023-04-02T09:28:32.093Z,14.57
2023-04-02T09:31:05.508Z,13.40
2023-04-02T09:33:45.017Z,12.57
2023-04-02T09:36:27.686Z,12.50
2023-04-02T09:39:00.227Z,11.67
2023-04-02T09:41:29.752Z,12.67
2023-04-02T09:44:14.024Z,11.57
2023-04-02T09:46:49.331Z,12.40
2023-04-02T09:49:18.906Z,12.90
2023-04-02T09:51:56.544Z,11.23
2023-04-02T09:54:26.382Z,11.23
2023-04-02T09:57:01.927Z,10.33
2023-04-02T09:59:30.195Z,11.23
2023-04-02T10:02:01.382Z,10.63
2023-04-02T10:04:36.577Z,11.00
2023-04-02T10:07:07.326Z,11.23
2023-04-02T10:09:37.357Z,10.80
2023-04-02T10:12:07.535Z,10.63
2023-04-02T10:14:37.363Z,11.87
2023-04-02T10:17:09.686Z,12.33
2023-04-02T10:19:39.395Z,11.73
2023-04-02T10:22:12.996Z,11.27
2023-04-02T10:24:41.523Z,10.43
2023-04-02T10:27:17.717Z,10.60
2023-04-02T10:29:51.420Z,11.10
2023-04-02T10:32:22.202Z,9.93
2023-04-02T10:34:53.166Z,9.80
2023-04-02T10:37:46.825Z,9.17
2023-04-02T10:40:19.164Z,9.60
2023-04-02T10:42:52.829Z,10.23
2023-04-02T10:45:26.332Z,9.70
2023-04-02T10:47:58.405Z,9.03
2023-04-02T10:50:31.087Z,8.43
2023-04-02T10:53:02.777Z,9.13
2023-04-02T10:55:31.918Z,8.07
2023-04-02T10:58:01.694Z,8.93
2023-04-02T11:00:30.931Z,9.50
2023-04-02T11:03:02.660Z,9.23
2023-04-02T11:05:37.091Z,10.03
2023-04-02T11:08:09.071Z,9.47
2023-04-02T11:10:38.843Z,9.67
2023-04-02T11:13:11.291Z,9.80
2023-04-02T11:15:39.647Z,9.67
2023-04-02T11:18:12.491Z,10.27
2023-04-02T11:20:58.680Z,9.13
2023-04-02T11:23:30.043Z,9.73
2023-04-02T11:26:17.057Z,9.60
2023-04-02T11:28:45.485Z,9.50
2023-04-02T11:31:21.472Z,9.17
2023-04-02T11:33:50.201Z,9.53
2023-04-02T11:36:37.459Z,10.03
2023-04-02T11:39:16.917Z,10.07
2023-04-02T11:42:05.894Z,9.43
2023-04-02T11:44:34.080Z,10.73
2023-04-02T11:47:18.500Z,10.33
2023-04-02T11:50:01.440Z,10.07
2023-04-02T11:52:31.318Z,10.30
2023-04-02T11:55:02.487Z,10.37
2023-04-02T11:57:39.260Z,9.87
2023-04-02T12:00:20.805Z,10.33
2023-04-02T12:02:55.570Z,10.17
2023-04-02T12:05:28.803Z,9.93
2023-04-02T12:08:14.894Z,10.10
2023-04-02T12:10:56.056Z,9.13
2023-04-02T12:13:49.832Z,8.50
2023-04-02T12:16:18.319Z,8.57
2023-04-02T12:18:47.801Z,8.53
2023-04-02T12:21:19.856Z,9.10
2023-04-02T12:23:49.090Z,8.93
2023-04-02T12:26:31.918Z,8.73
2023-04-02T12:29:16.465Z,7.97
2023-04-02T12:31:45.823Z,8.50
2023-04-02T12:34:16.254Z,9.30
2023-04-02T12:36:52.699Z,8.90
2023-04-02T12:39:20.859Z,8.37
2023-04-02T12:41:50.421Z,8.17
2023-04-02T12:44:19.997Z,8.40
2023-04-02T12:46:48.349Z,8.10
2023-04-02T12:49:22.238Z,8.17
2023-04-02T12:51:51.518Z,7.50
2023-04-02T12:54:20.623Z,7.87
2023-04-02T12:56:50.774Z,7.93
2023-04-02T12:59:28.945Z,7.13
2023-04-02T13:01:58.057Z,7.53
2023-04-02T13:04:26.332Z,7.13
2023-04-02T13:06:56.198Z,7.23
2023-04-02T13:09:29.679Z,7.83
2023-04-02T13:11:59.863Z,7.50
2023-04-02T13:14:28.476Z,5.90
2023-04-02T13:16:57.153Z,6.10
2023-04-02T13:19:30.007Z,5.70
2023-04-02T13:21:59.161Z,6.03
2023-04-02T13:24:28.319Z,5.97
2023-04-02T13:26:57.743Z,5.73
2023-04-02T13:29:28.418Z,6.10
2023-04-02T13:31:57.839Z,6.17
2023-04-02T13:34:26.364Z,5.77
2023-04-02T13:36:54.658Z,5.20
2023-04-02T13:39:22.974Z,5.40
2023-04-02T13:41:53.013Z,6.37
2023-04-02T13:44:25.500Z,5.97
2023-04-02T13:46:55.626Z,5.90
2023-04-02T13:49:24.111Z,6.00
2023-04-02T13:51:53.617Z,6.47
2023-04-02T13:54:23.843Z,5.53
2023-04-02T13:56:52.550Z,5.83
2023-04-02T13:59:20.796Z,6.10
2023-04-02T14:01:49.659Z,5.77
2023-04-02T14:04:22.417Z,5.73
2023-04-02T14:07:09.750Z,5.87
2023-04-02T14:09:47.665Z,5.37
2023-04-02T14:12:19.987Z,4.90
2023-04-02T14:14:56.799Z,5.10
2023-04-02T14:17:30.897Z,5.17
2023-04-02T14:20:10.639Z,5.07
2023-04-02T14:22:44.009Z,5.00
2023-04-02T14:25:16.992Z,5.50
2023-04-02T14:27:49.576Z,4.90
2023-04-02T14:30:20.712Z,4.90
2023-04-02T14:32:51.842Z,4.87
2023-04-02T14:35:24.701Z,5.13
2023-04-02T14:37:57.052Z,5.03
2023-04-02T14:40:28.687Z,5.07
2023-04-02T14:43:00.035Z,4.67
2023-04-02T14:45:32.402Z,5.10
2023-04-02T14:48:03.215Z,5.40
2023-04-02T14:50:36.431Z,5.20
2023-04-02T14:53:09.096Z,5.03
2023-04-02T14:55:38.915Z,4.87
2023-04-02T14:58:11.642Z,4.67
2023-04-02T15:00:41.723Z,5.27
2023-04-02T15:03:13.032Z,4.40
2023-04-02T15:05:44.659Z,4.60
2023-04-02T15:08:20.814Z,4.47
2023-04-02T15:10:55.995Z,4.80
2023-04-02T15:13:26.796Z,4.70
2023-04-02T15:15:56.768Z,4.50
2023-04-02T15:18:25.506Z,4.57
2023-04-02T15:20:59.030Z,4.10
2023-04-02T15:23:38.732Z,4.33
2023-04-02T15:26:12.378Z,3.97
2023-04-02T15:28:42.914Z,4.10
2023-04-02T15:31:14.204Z,4.50
2023-04-02T15:33:43.957Z,4.47
2023-04-02T15:36:35.233Z,4.47
2023-04-02T15:39:11.005Z,4.07
2023-04-02T15:41:42.463Z,4.43
2023-04-02T15:44:11.608Z,4.20
2023-04-02T15:46:43.578Z,3.73
2023-04-02T15:49:25.853Z,3.77
2023-04-02T15:52:01.456Z,3.60
2023-04-02T15:54:35.799Z,3.97
2023-04-02T15:57:11.206Z,3.53
2023-04-02T15:59:50.039Z,3.70
2023-04-02T16:02:29.997Z,3.40
2023-04-02T16:05:04.670Z,3.73
2023-04-02T16:07:44.699Z,3.57
2023-04-02T16:10:27.538Z,3.43
2023-04-02T16:13:02.371Z,3.47
2023-04-02T16:15:32.687Z,3.10
2023-04-02T16:18:03.596Z,3.37
2023-04-02T16:20:33.633Z,3.23
2023-04-02T16:23:04.464Z,2.13
2023-04-02T16:25:36.620Z,2.73
2023-04-02T16:28:09.954Z,2.90
2023-04-02T16:30:43.053Z,2.77
2023-04-02T16:33:18.993Z,2.60
2023-04-02T16:35:54.711Z,2.73
2023-04-02T16:38:30.775Z,3.23
2023-04-02T16:41:08.433Z,2.90
2023-04-02T16:43:41.684Z,3.03
2023-04-02T16:46:12.613Z,2.93
2023-04-02T16:48:44.663Z,2.20
2023-04-02T16:51:21.098Z,2.07
2023-04-02T16:54:01.556Z,2.87
2023-04-02T16:56:37.237Z,2.67
2023-04-02T16:59:09.012Z,2.73
2023-04-02T17:01:40.396Z,3.03
2023-04-02T17:04:16.101Z,3.10
2023-04-02T17:06:45.164Z,3.10
2023-04-02T17:09:18.764Z,3.23
2023-04-02T17:11:49.829Z,2.50
2023-04-02T17:14:24.645Z,2.60
2023-04-02T17:16:56.237Z,2.60
2023-04-02T17:19:26.341Z,2.73
2023-04-02T17:21:58.056Z,2.93
2023-04-02T17:24:29.735Z,2.50
2023-04-02T17:27:00.274Z,2.50
2023-04-02T17:29:31.570Z,2.73
2023-04-02T17:32:01.805Z,2.20
2023-04-02T17:34:30.536Z,2.53
2023-04-02T17:37:02.807Z,2.83
2023-04-02T17:39:36.276Z,2.67
2023-04-02T17:42:09.287Z,2.43
2023-04-02T17:44:43.649Z,2.77
2023-04-02T17:47:15.251Z,2.60
2023-04-02T17:49:46.166Z,2.40
2023-04-02T17:52:18.818Z,2.30
2023-04-02T17:54:52.659Z,2.37
2023-04-02T17:57:26.634Z,2.77
2023-04-02T18:00:04.674Z,2.47
2023-04-02T18:02:51.323Z,3.07
2023-04-02T18:05:26.838Z,2.97
2023-04-02T18:07:58.899Z,2.70
2023-04-02T18:10:30.492Z,2.60
2023-04-02T18:12:59.791Z,2.70
2023-04-02T18:15:39.864Z,3.00
2023-04-02T18:18:15.457Z,2.90
2023-04-02T18:20:46.383Z,3.60
2023-04-02T18:23:23.635Z,3.00
2023-04-02T18:25:56.170Z,3.90
2023-04-02T18:28:33.169Z,2.80
2023-04-02T18:31:03.577Z,3.23
2023-04-02T18:33:37.401Z,3.27
2023-04-02T18:36:08.417Z,3.67
2023-04-02T18:38:42.491Z,3.30
2023-04-02T18:41:20.015Z,3.13
2023-04-02T18:43:54.103Z,3.27
2023-04-02T18:46:26.683Z,3.23
2023-04-02T18:48:57.750Z,3.10
2023-04-02T18:51:27.558Z,3.10
2023-04-02T18:53:58.217Z,3.20
2023-04-02T18:56:28.563Z,3.50
2023-04-02T18:58:59.795Z,3.37
2023-04-02T19:01:30.546Z,3.60
2023-04-02T19:04:02.816Z,3.60
2023-04-02T19:06:33.662Z,3.50
2023-04-02T19:09:02.987Z,3.63
2023-04-02T19:11:32.519Z,4.20
2023-04-02T19:14:01.334Z,3.50
2023-04-02T19:16:39.577Z,3.77
2023-04-02T19:19:13.355Z,3.33
2023-04-02T19:21:48.105Z,3.73
2023-04-02T19:24:31.386Z,3.70
2023-04-02T19:27:07.327Z,4.20
2023-04-02T19:29:43.747Z,4.23
2023-04-02T19:32:15.231Z,4.30
2023-04-02T19:34:47.659Z,4.53
2023-04-02T19:37:17.947Z,4.00
2023-04-02T19:39:58.365Z,4.03
2023-04-02T19:42:35.889Z,3.70
2023-04-02T19:45:04.230Z,3.90
2023-04-02T19:47:32.790Z,3.53
2023-04-02T19:50:00.938Z,4.20
2023-04-02T19:52:29.112Z,3.70
2023-04-02T19:54:57.275Z,3.90
2023-04-02T19:57:25.550Z,3.73
2023-04-02T19:59:55.105Z,4.07
2023-04-02T20:02:23.351Z,4.17
2023-04-02T20:04:51.553Z,4.13
2023-04-02T20:07:19.767Z,4.83
2023-04-02T20:09:47.966Z,4.47
2023-04-02T20:12:16.133Z,4.27
2023-04-02T20:14:44.328Z,4.13
2023-04-02T20:17:13.872Z,4.03
2023-04-02T20:19:42.050Z,4.63
2023-04-02T20:22:10.488Z,4.57
2023-04-02T20:24:38.639Z,4.10
2023-04-02T20:27:06.807Z,4.43
2023-04-02T20:29:34.959Z,4.27
2023-04-02T20:32:03.112Z,4.10
2023-04-02T20:34:32.859Z,4.20
2023-04-02T20:37:01.221Z,3.90
2023-04-02T20:39:29.450Z,3.93
2023-04-02T20:42:01.105Z,4.50
2023-04-02T20:44:29.379Z,4.10
2023-04-02T20:46:57.605Z,4.20
2023-04-02T20:49:26.436Z,3.90
2023-04-02T20:51:55.950Z,4.07
2023-04-02T20:54:24.163Z,3.90
2023-04-02T20:56:52.669Z,4.00
2023-04-02T20:59:20.973Z,3.97
2023-04-02T21:01:49.136Z,4.20
2023-04-02T21:04:17.478Z,4.10
2023-04-02T21:06:45.674Z,4.63
2023-04-02T21:09:17.638Z,4.03
2023-04-02T21:11:46.241Z,4.20
2023-04-02T21:14:14.387Z,4.10
2023-04-02T21:16:42.568Z,3.70
2023-04-02T21:19:11.351Z,3.90
2023-04-02T21:21:40.753Z,3.87
2023-04-02T21:24:09.742Z,3.90
2023-04-02T21:26:39.822Z,4.40
2023-04-02T21:29:08.016Z,4.10
2023-04-02T21:31:37.157Z,3.90
2023-04-02T21:34:05.921Z,4.00
2023-04-02T21:36:35.018Z,4.47
2023-04-02T21:39:04.365Z,3.37
2023-04-02T21:41:33.500Z,4.07
2023-04-02T21:44:03.982Z,3.73
2023-04-02T21:46:33.456Z,4.30
2023-04-02T21:49:02.118Z,3.80
2023-04-02T21:51:30.950Z,4.00
2023-04-02T21:53:59.568Z,4.00
2023-04-02T21:56:28.546Z,4.27
2023-04-02T21:58:58.115Z,4.17
2023-04-02T22:01:28.713Z,4.13
2023-04-02T22:03:57.180Z,4.53
2023-04-02T22:06:26.247Z,4.63
2023-04-02T22:08:55.212Z,4.13
2023-04-02T22:11:23.957Z,4.50
2023-04-02T22:13:52.498Z,4.30
2023-04-02T22:16:21.873Z,4.50
2023-04-02T22:18:52.312Z,4.00
2023-04-02T22:21:21.116Z,4.23
2023-04-02T22:23:49.944Z,4.20
2023-04-02T22:26:19.230Z,4.33
2023-04-02T22:28:47.683Z,4.53
2023-04-02T22:31:16.827Z,4.20
2023-04-02T22:33:45.733Z,4.23
2023-04-02T22:36:15.901Z,4.53
2023-04-02T22:38:44.164Z,4.30
2023-04-02T22:41:13.140Z,3.90
2023-04-02T22:43:42.796Z,4.00
2023-04-02T22:46:11.784Z,4.17
2023-04-02T22:48:40.406Z,4.00
2023-04-02T22:51:09.457Z,3.90
2023-04-02T22:53:39.640Z,4.37
2023-04-02T22:56:08.765Z,3.97
2023-04-02T22:58:37.408Z,3.40
2023-04-02T23:01:06.105Z,3.83
2023-04-02T23:03:34.293Z,3.90
2023-04-02T23:06:03.303Z,3.87
2023-04-02T23:08:31.577Z,4.10
2023-04-02T23:11:05.427Z,3.73
2023-04-02T23:13:34.052Z,3.83
2023-04-02T23:16:02.809Z,3.73
2023-04-02T23:18:31.438Z,3.67
2023-04-02T23:20:59.664Z,3.57
2023-04-02T23:23:27.855Z,3.83
2023-04-02T23:26:05.359Z,3.13
2023-04-02T23:28:33.558Z,3.87
2023-04-02T23:31:02.904Z,3.40
2023-04-02T23:33:31.144Z,3.10
2023-04-02T23:35:59.614Z,3.70
2023-04-02T23:38:28.367Z,3.27
2023-04-02T23:40:56.512Z,2.90
2023-04-02T23:43:26.136Z,3.10
2023-04-02T23:45:54.314Z,3.07
2023-04-02T23:48:22.461Z,2.73
2023-04-02T23:50:50.751Z,2.93
2023-04-02T23:53:19.173Z,2.77
2023-04-02T23:55:47.372Z,2.87
2023-04-02T23:58:15.547Z,2.60
